createdAt,value
2019-01-06T00:01:06.511Z,9.40
2019-01-06T00:03:52.947Z,8.87
2019-01-06T00:06:49.707Z,7.70
2019-01-06T00:09:52.442Z,7.57
2019-01-06T00:12:49.191Z,8.23
2019-01-06T00:15:55.380Z,8.97
2019-01-06T00:18:50.444Z,6.60
2019-01-06T00:21:37.180Z,10.97
2019-01-06T00:24:24.797Z,9.70
2019-01-06T00:27:08.461Z,10.10
2019-01-06T00:30:08.077Z,8.07
2019-01-06T00:32:54.403Z,7.00
2019-01-06T00:35:47.775Z,7.97
2019-01-06T00:38:41.715Z,7.83
2019-01-06T00:41:39.626Z,9.30
2019-01-06T00:44:26.611Z,9.93
2019-01-06T00:47:29.627Z,10.63
2019-01-06T00:50:20.183Z,9.33
2019-01-06T00:53:06.636Z,8.40
2019-01-06T00:55:54.483Z,7.80
2019-01-06T00:58:57.271Z,9.67
2019-01-06T01:02:00.591Z,9.67
2019-01-06T01:04:59.485Z,7.90
2019-01-06T01:07:46.339Z,9.07
2019-01-06T01:10:34.090Z,9.33
2019-01-06T01:13:20.970Z,8.60
2019-01-06T01:16:07.809Z,8.90
2019-01-06T01:18:47.307Z,9.47
2019-01-06T01:21:35.156Z,10.10
2019-01-06T01:24:21.657Z,8.60
2019-01-06T01:27:28.239Z,9.60
2019-01-06T01:30:22.632Z,7.97
2019-01-06T01:33:11.749Z,11.63
2019-01-06T01:36:05.781Z,7.90
2019-01-06T01:38:59.725Z,9.77
2019-01-06T01:41:45.914Z,7.50
2019-01-06T01:44:43.001Z,10.23
2019-01-06T01:47:30.806Z,8.93
2019-01-06T01:50:18.488Z,8.57
2019-01-06T01:53:06.710Z,9.37
2019-01-06T01:55:53.436Z,7.60
2019-01-06T01:58:34.828Z,7.77
2019-01-06T02:01:21.388Z,9.47
2019-01-06T02:04:09.425Z,7.73
2019-01-06T02:07:12.125Z,8.10
2019-01-06T02:09:58.208Z,9.33
2019-01-06T02:12:46.165Z,7.87
2019-01-06T02:15:23.004Z,9.97
2019-01-06T02:18:09.793Z,10.47
2019-01-06T02:21:06.747Z,8.43
2019-01-06T02:23:53.653Z,10.10
2019-01-06T02:26:50.797Z,7.97
2019-01-06T02:29:49.122Z,8.17
2019-01-06T02:32:35.458Z,9.63
2019-01-06T02:35:22.376Z,9.47
2019-01-06T02:38:16.710Z,8.33
2019-01-06T02:41:16.862Z,8.60
2019-01-06T02:44:07.323Z,7.90
2019-01-06T02:47:06.403Z,8.03
2019-01-06T02:50:03.369Z,7.40
2019-01-06T02:52:54.343Z,7.93
2019-01-06T02:55:54.722Z,9.57
2019-01-06T02:58:45.494Z,8.10
2019-01-06T03:01:32.116Z,8.57
2019-01-06T03:04:18.631Z,7.33
2019-01-06T03:07:06.456Z,8.07
2019-01-06T03:09:54.438Z,6.53
2019-01-06T03:12:41.074Z,7.73
2019-01-06T03:15:27.499Z,5.47
2019-01-06T03:18:18.270Z,6.20
2019-01-06T03:21:09.112Z,6.40
2019-01-06T03:23:55.927Z,8.90
2019-01-06T03:26:54.271Z,7.83
2019-01-06T03:29:45.013Z,7.67
2019-01-06T03:32:48.355Z,9.33
2019-01-06T03:35:36.257Z,6.90
2019-01-06T03:38:39.103Z,7.87
2019-01-06T03:41:21.501Z,8.60
2019-01-06T03:44:09.006Z,8.93
2019-01-06T03:46:55.367Z,10.67
2019-01-06T03:49:48.934Z,9.00
2019-01-06T03:52:35.579Z,9.63
2019-01-06T03:55:29.272Z,10.20
2019-01-06T03:58:32.513Z,9.40
2019-01-06T04:01:19.434Z,8.43
2019-01-06T04:04:05.675Z,7.47
2019-01-06T04:06:53.670Z,9.73
2019-01-06T04:09:44.532Z,9.17
2019-01-06T04:12:38.240Z,7.67
2019-01-06T04:15:26.053Z,9.17
2019-01-06T04:18:29.072Z,10.47
2019-01-06T04:21:16.595Z,9.43
2019-01-06T04:24:20.128Z,9.37
2019-01-06T04:27:17.079Z,9.37
2019-01-06T04:30:14.126Z,9.77
2019-01-06T04:33:04.783Z,9.80
2019-01-06T04:35:51.311Z,10.70
2019-01-06T04:38:37.689Z,10.87
2019-01-06T04:41:24.564Z,9.07
2019-01-06T04:44:12.266Z,8.60
2019-01-06T04:47:06.266Z,6.77
2019-01-06T04:49:54.360Z,9.10
2019-01-06T04:52:40.616Z,7.53
2019-01-06T04:55:27.438Z,6.73
2019-01-06T04:58:24.585Z,7.27
2019-01-06T05:01:15.417Z,7.30
2019-01-06T05:04:06.861Z,6.47
2019-01-06T05:07:10.013Z,6.93
2019-01-06T05:10:10.020Z,6.23
2019-01-06T05:13:00.758Z,8.57
2019-01-06T05:16:00.852Z,7.00
2019-01-06T05:18:41.779Z,6.43
2019-01-06T05:21:36.164Z,6.33
2019-01-06T05:24:27.751Z,7.37
2019-01-06T05:27:15.034Z,6.87
2019-01-06T05:30:01.653Z,4.80
2019-01-06T05:32:38.272Z,6.43
2019-01-06T05:35:29.106Z,6.83
2019-01-06T05:38:15.636Z,6.53
2019-01-06T05:41:02.457Z,5.80
2019-01-06T05:43:49.934Z,5.10
2019-01-06T05:46:43.476Z,4.87
2019-01-06T05:49:30.301Z,5.43
2019-01-06T05:52:16.719Z,6.13
2019-01-06T05:55:04.538Z,6.53
2019-01-06T05:57:51.160Z,5.13
2019-01-06T06:00:45.602Z,3.53
2019-01-06T06:03:33.358Z,6.00
2019-01-06T06:06:19.978Z,4.13
2019-01-06T06:09:06.514Z,4.73
2019-01-06T06:11:54.319Z,4.47
2019-01-06T06:14:42.019Z,5.23
2019-01-06T06:17:26.153Z,3.90
2019-01-06T06:20:26.287Z,4.90
2019-01-06T06:23:20.082Z,5.07
2019-01-06T06:26:06.907Z,5.10
2019-01-06T06:28:53.835Z,5.57
2019-01-06T06:31:50.694Z,5.03
2019-01-06T06:34:36.912Z,5.17
2019-01-06T06:37:37.021Z,4.90
2019-01-06T06:40:28.154Z,4.97
2019-01-06T06:43:08.770Z,6.30
2019-01-06T06:46:14.596Z,5.40
2019-01-06T06:49:01.313Z,6.43
2019-01-06T06:51:48.781Z,5.33
2019-01-06T06:54:45.567Z,6.10
2019-01-06T06:57:51.360Z,5.53
2019-01-06T07:00:55.214Z,5.10
2019-01-06T07:03:48.010Z,6.97
2019-01-06T07:06:34.647Z,6.10
2019-01-06T07:09:22.445Z,5.03
2019-01-06T07:12:08.976Z,5.77
2019-01-06T07:15:02.562Z,5.60
2019-01-06T07:18:27.354Z,7.47
2019-01-06T07:21:15.348Z,7.13
2019-01-06T07:24:03.063Z,5.83
2019-01-06T07:26:50.766Z,6.80
2019-01-06T07:29:44.234Z,5.60
2019-01-06T07:32:32.184Z,7.07
2019-01-06T07:35:19.199Z,5.00
2019-01-06T07:38:11.594Z,8.53
2019-01-06T07:40:59.525Z,6.00
2019-01-06T07:44:02.367Z,8.47
2019-01-06T07:47:01.887Z,8.97
2019-01-06T07:50:07.677Z,7.33
2019-01-06T07:52:58.924Z,6.80
2019-01-06T07:55:45.374Z,8.57
2019-01-06T07:58:38.449Z,8.83
2019-01-06T08:01:25.100Z,8.23
2019-01-06T08:04:11.722Z,9.87
2019-01-06T08:07:01.984Z,9.10
2019-01-06T08:09:58.125Z,7.60
2019-01-06T08:12:41.298Z,7.37
2019-01-06T08:15:41.227Z,8.97
2019-01-06T08:18:27.783Z,10.30
2019-01-06T08:21:27.451Z,10.03
2019-01-06T08:24:14.293Z,9.13
2019-01-06T08:27:00.903Z,8.23
2019-01-06T08:29:54.903Z,7.33
2019-01-06T08:32:42.265Z,9.03
2019-01-06T08:35:44.086Z,8.13
2019-01-06T08:38:30.907Z,11.07
2019-01-06T08:41:18.085Z,9.37
2019-01-06T08:44:05.637Z,7.80
2019-01-06T08:46:52.256Z,8.20
2019-01-06T08:49:36.495Z,9.13
2019-01-06T08:52:16.879Z,8.50
2019-01-06T08:55:17.015Z,7.33
2019-01-06T08:58:13.807Z,7.27
2019-01-06T09:01:01.704Z,7.67
2019-01-06T09:04:08.092Z,7.60
2019-01-06T09:06:58.853Z,7.93
2019-01-06T09:09:49.902Z,6.47
2019-01-06T09:12:45.225Z,8.23
2019-01-06T09:15:35.740Z,8.10
2019-01-06T09:18:30.427Z,7.27
2019-01-06T09:21:16.479Z,8.73
2019-01-06T09:24:07.766Z,8.13
2019-01-06T09:26:54.091Z,7.10
2019-01-06T09:29:41.463Z,9.17
2019-01-06T09:32:38.595Z,8.43
2019-01-06T09:35:25.513Z,10.80
2019-01-06T09:38:28.663Z,10.77
2019-01-06T09:41:18.556Z,8.40
2019-01-06T09:44:05.262Z,9.30
2019-01-06T09:46:47.474Z,7.43
2019-01-06T09:49:44.699Z,8.93
2019-01-06T09:52:47.616Z,8.60
2019-01-06T09:55:33.502Z,9.90
2019-01-06T09:58:21.263Z,8.43
2019-01-06T10:01:07.253Z,6.97
2019-01-06T10:03:53.669Z,10.80
2019-01-06T10:06:39.800Z,7.53
2019-01-06T10:09:33.906Z,10.20
2019-01-06T10:12:27.413Z,9.97
2019-01-06T10:15:13.882Z,9.20
2019-01-06T10:18:01.400Z,8.20
2019-01-06T10:21:06.990Z,7.90
2019-01-06T10:24:00.541Z,10.47
2019-01-06T10:26:57.298Z,10.37
2019-01-06T10:29:43.538Z,9.10
2019-01-06T10:32:22.141Z,8.50
2019-01-06T10:35:06.114Z,9.50
2019-01-06T10:38:02.791Z,21.80
2019-01-06T10:40:48.886Z,17.60
2019-01-06T10:43:35.767Z,35.47
2019-01-06T10:46:22.363Z,29.83
2019-01-06T10:49:16.127Z,9.77
2019-01-06T10:52:15.416Z,8.57
2019-01-06T10:55:08.610Z,8.07
2019-01-06T10:57:54.483Z,9.07
2019-01-06T11:00:41.779Z,9.47
2019-01-06T11:03:28.116Z,10.33
2019-01-06T11:06:28.307Z,7.70
2019-01-06T11:09:16.766Z,10.70
2019-01-06T11:12:04.515Z,7.70
2019-01-06T11:14:41.378Z,7.67
2019-01-06T11:17:28.129Z,12.57
2019-01-06T11:20:21.478Z,7.67
2019-01-06T11:23:08.752Z,9.90
2019-01-06T11:25:51.538Z,7.50
2019-01-06T11:28:57.077Z,8.83
2019-01-06T11:31:42.654Z,6.80
2019-01-06T11:34:28.979Z,9.93
2019-01-06T11:37:19.555Z,8.80
2019-01-06T11:40:05.451Z,12.37
2019-01-06T11:43:05.547Z,10.67
2019-01-06T11:46:11.506Z,9.37
2019-01-06T11:48:57.746Z,7.83
2019-01-06T11:51:44.059Z,8.10
2019-01-06T11:54:31.974Z,8.43
2019-01-06T11:57:18.890Z,7.87
2019-01-06T12:00:06.550Z,7.60
2019-01-06T12:02:56.609Z,8.90
2019-01-06T12:05:37.413Z,8.60
2019-01-06T12:08:30.527Z,10.13
2019-01-06T12:11:30.338Z,8.90
2019-01-06T12:14:17.820Z,7.30
2019-01-06T12:17:04.736Z,8.30
2019-01-06T12:20:07.021Z,7.80
2019-01-06T12:23:00.012Z,7.90
2019-01-06T12:25:50.262Z,7.13
2019-01-06T12:28:32.243Z,7.90
2019-01-06T12:31:18.029Z,8.03
2019-01-06T12:34:06.564Z,8.63
2019-01-06T12:36:52.942Z,8.77
2019-01-06T12:39:39.384Z,6.87
2019-01-06T12:42:25.551Z,7.50
2019-01-06T12:45:11.729Z,9.37
2019-01-06T12:47:59.059Z,7.53
2019-01-06T12:50:44.893Z,8.13
2019-01-06T12:53:28.630Z,7.30
2019-01-06T12:56:25.001Z,7.87
2019-01-06T12:59:12.250Z,8.07
2019-01-06T13:02:14.532Z,9.53
2019-01-06T13:05:00.511Z,9.70
2019-01-06T13:07:46.974Z,8.43
2019-01-06T13:10:37.623Z,7.90
2019-01-06T13:13:36.545Z,7.73
2019-01-06T13:16:16.257Z,9.33
2019-01-06T13:18:58.548Z,8.70
2019-01-06T13:21:45.770Z,8.37
2019-01-06T13:24:36.284Z,7.87
2019-01-06T13:27:36.063Z,9.83
2019-01-06T13:30:22.197Z,11.23
2019-01-06T13:33:16.314Z,10.37
2019-01-06T13:36:03.029Z,8.73
2019-01-06T13:39:00.454Z,9.00
2019-01-06T13:41:40.821Z,9.23
2019-01-06T13:44:27.161Z,8.33
2019-01-06T13:47:06.033Z,9.13
2019-01-06T13:50:02.748Z,9.33
2019-01-06T13:52:48.593Z,8.60
2019-01-06T13:55:34.813Z,8.27
2019-01-06T13:58:21.854Z,10.37
2019-01-06T14:01:15.855Z,9.37
2019-01-06T14:04:00.142Z,9.10
2019-01-06T14:06:46.839Z,7.60
2019-01-06T14:09:33.445Z,9.00
2019-01-06T14:12:19.483Z,10.53
2019-01-06T14:15:09.838Z,10.93
2019-01-06T14:17:56.859Z,8.37
2019-01-06T14:21:03.506Z,9.27
2019-01-06T14:23:54.104Z,7.50
2019-01-06T14:26:42.692Z,9.83
2019-01-06T14:29:36.403Z,9.60
2019-01-06T14:32:26.970Z,10.60
2019-01-06T14:35:21.058Z,11.50
2019-01-06T14:38:08.253Z,9.27
2019-01-06T14:40:56.036Z,11.57
2019-01-06T14:43:42.426Z,11.43
2019-01-06T14:46:28.693Z,15.50
2019-01-06T14:49:15.349Z,11.13
2019-01-06T14:52:01.578Z,11.07
2019-01-06T14:55:04.933Z,12.40
2019-01-06T14:57:49.770Z,11.20
2019-01-06T15:00:44.000Z,11.67
2019-01-06T15:03:43.744Z,14.37
2019-01-06T15:06:49.897Z,10.33
2019-01-06T15:09:34.366Z,11.43
2019-01-06T15:12:22.078Z,13.13
2019-01-06T15:15:17.906Z,11.87
2019-01-06T15:18:04.847Z,13.17
2019-01-06T15:21:01.712Z,13.43
2019-01-06T15:23:55.573Z,10.07
2019-01-06T15:26:44.510Z,11.53
2019-01-06T15:29:30.971Z,13.93
2019-01-06T15:32:28.054Z,12.83
2019-01-06T15:35:14.487Z,11.80
2019-01-06T15:38:04.986Z,12.20
2019-01-06T15:40:51.440Z,15.13
2019-01-06T15:43:38.300Z,12.93
2019-01-06T15:46:21.846Z,14.17
2019-01-06T15:49:08.387Z,11.87
2019-01-06T15:52:11.487Z,14.13
2019-01-06T15:55:01.988Z,15.17
2019-01-06T15:57:49.040Z,12.83
2019-01-06T16:00:35.548Z,16.10
2019-01-06T16:03:21.844Z,15.97
2019-01-06T16:06:12.767Z,18.13
2019-01-06T16:09:03.111Z,18.93
2019-01-06T16:12:00.134Z,15.23
2019-01-06T16:14:47.861Z,17.40
2019-01-06T16:17:38.616Z,17.90
2019-01-06T16:20:25.034Z,18.43
2019-01-06T16:23:22.292Z,20.23
2019-01-06T16:26:12.721Z,15.63
2019-01-06T16:29:06.340Z,18.00
2019-01-06T16:32:12.639Z,20.83
2019-01-06T16:34:59.544Z,20.83
2019-01-06T16:37:46.662Z,19.17
2019-01-06T16:40:43.618Z,18.27
2019-01-06T16:43:37.913Z,19.33
2019-01-06T16:46:44.191Z,15.00
2019-01-06T16:49:47.332Z,20.93
2019-01-06T16:52:56.087Z,17.63
2019-01-06T16:55:58.679Z,16.43
2019-01-06T16:58:57.262Z,22.33
2019-01-06T17:01:48.593Z,20.03
2019-01-06T17:04:35.519Z,19.70
2019-01-06T17:07:29.513Z,18.83
2019-01-06T17:10:26.477Z,22.57
2019-01-06T17:13:13.188Z,18.83
2019-01-06T17:16:03.957Z,18.73
2019-01-06T17:18:50.342Z,19.50
2019-01-06T17:21:46.939Z,20.83
2019-01-06T17:24:33.172Z,18.67
2019-01-06T17:27:27.738Z,16.50
2019-01-06T17:30:31.093Z,24.77
2019-01-06T17:33:16.228Z,20.80
2019-01-06T17:36:07.031Z,20.43
2019-01-06T17:38:53.627Z,26.80
2019-01-06T17:41:47.421Z,24.03
2019-01-06T17:44:38.384Z,18.93
2019-01-06T17:47:32.472Z,23.77
2019-01-06T17:50:32.758Z,21.03
2019-01-06T17:53:26.466Z,20.60
2019-01-06T17:56:20.393Z,18.80
2019-01-06T17:59:08.390Z,21.57
2019-01-06T18:02:04.837Z,20.80
2019-01-06T18:04:50.422Z,18.07
2019-01-06T18:07:44.278Z,22.90
2019-01-06T18:10:32.081Z,23.13
2019-01-06T18:13:29.135Z,19.90
2019-01-06T18:16:32.277Z,21.07
2019-01-06T18:19:38.076Z,20.50
2019-01-06T18:22:24.413Z,19.03
2019-01-06T18:25:18.202Z,17.33
2019-01-06T18:28:15.151Z,20.47
2019-01-06T18:31:18.295Z,19.00
2019-01-06T18:34:04.884Z,19.17
2019-01-06T18:36:51.634Z,19.17
2019-01-06T18:39:38.557Z,15.73
2019-01-06T18:42:36.183Z,17.50
2019-01-06T18:45:30.291Z,18.77
2019-01-06T18:48:30.183Z,17.70
2019-01-06T18:51:16.441Z,21.13
2019-01-06T18:54:03.062Z,18.23
2019-01-06T18:56:53.595Z,13.43
2019-01-06T18:59:41.478Z,17.30
2019-01-06T19:02:29.512Z,18.07
2019-01-06T19:05:16.243Z,15.87
2019-01-06T19:08:06.904Z,16.50
2019-01-06T19:10:58.140Z,15.90
2019-01-06T19:13:45.847Z,18.80
2019-01-06T19:16:35.172Z,17.43
2019-01-06T19:19:23.031Z,17.60
2019-01-06T19:22:16.251Z,13.23
2019-01-06T19:25:07.147Z,14.53
2019-01-06T19:28:00.155Z,13.77
2019-01-06T19:31:06.420Z,14.07
2019-01-06T19:33:56.967Z,13.37
2019-01-06T19:37:02.702Z,12.20
2019-01-06T19:39:52.199Z,12.10
2019-01-06T19:42:43.003Z,13.93
2019-01-06T19:45:40.142Z,16.03
2019-01-06T19:48:26.403Z,13.37
2019-01-06T19:51:31.482Z,11.67
2019-01-06T19:54:22.244Z,14.63
2019-01-06T19:57:25.078Z,11.80
2019-01-06T20:00:16.123Z,17.10
2019-01-06T20:03:03.895Z,14.07
2019-01-06T20:05:50.484Z,14.00
2019-01-06T20:08:47.211Z,15.67
2019-01-06T20:11:53.507Z,12.47
2019-01-06T20:14:40.222Z,15.57
2019-01-06T20:17:26.749Z,13.30
2019-01-06T20:20:17.723Z,13.40
2019-01-06T20:23:11.451Z,10.47
2019-01-06T20:25:58.129Z,16.17
2019-01-06T20:28:51.540Z,10.90
2019-01-06T20:31:39.258Z,12.43
2019-01-06T20:34:27.158Z,13.17
2019-01-06T20:37:14.967Z,14.97
2019-01-06T20:40:15.354Z,11.73
2019-01-06T20:43:11.704Z,11.90
2019-01-06T20:46:05.342Z,14.07
2019-01-06T20:48:52.229Z,11.37
2019-01-06T20:51:58.617Z,10.93
2019-01-06T20:54:45.547Z,11.07
2019-01-06T20:57:33.351Z,10.87
2019-01-06T21:00:21.450Z,10.57
2019-01-06T21:03:08.381Z,12.07
2019-01-06T21:05:48.223Z,9.33
2019-01-06T21:08:35.435Z,11.90
2019-01-06T21:11:32.204Z,12.27
2019-01-06T21:14:19.292Z,10.97
2019-01-06T21:17:07.217Z,13.10
2019-01-06T21:20:13.783Z,13.23
2019-01-06T21:23:01.499Z,12.33
2019-01-06T21:25:49.085Z,12.63
2019-01-06T21:28:55.204Z,9.77
2019-01-06T21:31:46.226Z,11.47
2019-01-06T21:34:32.774Z,12.90
2019-01-06T21:37:23.927Z,15.83
2019-01-06T21:40:06.459Z,10.10
2019-01-06T21:43:09.461Z,11.00
2019-01-06T21:45:55.795Z,10.87
2019-01-06T21:48:49.180Z,14.17
2019-01-06T21:51:39.681Z,10.97
2019-01-06T21:54:26.104Z,12.30
2019-01-06T21:57:12.627Z,10.47
2019-01-06T22:00:00.429Z,9.37
2019-01-06T22:02:54.133Z,11.20
2019-01-06T22:05:57.279Z,13.90
2019-01-06T22:08:54.035Z,11.50
2019-01-06T22:11:41.921Z,11.70
2019-01-06T22:14:39.266Z,8.83
2019-01-06T22:17:35.923Z,10.60
2019-01-06T22:20:23.751Z,11.13
2019-01-06T22:23:20.674Z,9.83
2019-01-06T22:26:08.569Z,10.80
2019-01-06T22:28:59.159Z,10.17
2019-01-06T22:31:44.195Z,9.17
2019-01-06T22:34:32.092Z,11.37
2019-01-06T22:37:18.819Z,11.67
2019-01-06T22:40:20.056Z,8.43
2019-01-06T22:43:26.081Z,8.80
2019-01-06T22:46:35.098Z,10.83
2019-01-06T22:49:19.986Z,10.87
2019-01-06T22:52:06.621Z,9.40
2019-01-06T22:54:52.759Z,10.00
2019-01-06T22:57:59.010Z,11.20
2019-01-06T23:01:00.586Z,10.53
2019-01-06T23:03:39.923Z,10.50
2019-01-06T23:06:23.682Z,10.90
2019-01-06T23:09:17.346Z,9.97
2019-01-06T23:11:58.263Z,9.10
2019-01-06T23:14:57.136Z,9.77
2019-01-06T23:17:43.705Z,10.80
2019-01-06T23:20:27.070Z,10.57
2019-01-06T23:23:20.791Z,9.63
2019-01-06T23:26:11.161Z,13.37
2019-01-06T23:29:07.910Z,11.07
2019-01-06T23:31:58.933Z,9.23
2019-01-06T23:35:02.093Z,14.70
2019-01-06T23:37:50.683Z,9.30
2019-01-06T23:40:37.501Z,8.90
2019-01-06T23:43:37.791Z,9.17
2019-01-06T23:46:25.892Z,10.03
2019-01-06T23:49:14.001Z,10.43
2019-01-06T23:52:01.719Z,7.03
2019-01-06T23:54:49.611Z,10.13
2019-01-06T23:57:43.127Z,10.47
